createdAt,value
2023-02-21T00:32:25.799Z,2701.00
2023-02-21T00:33:25.770Z,2706.00
2023-02-21T00:34:25.800Z,2703.00
2023-02-21T00:35:25.716Z,2710.00
2023-02-21T00:36:25.716Z,2736.00
2023-02-21T00:37:25.703Z,2691.00
2023-02-21T00:38:26.655Z,2688.00
2023-02-21T00:39:25.691Z,2689.00
2023-02-21T00:40:25.651Z,2693.00
2023-02-21T00:41:25.623Z,2690.00
2023-02-21T00:42:25.630Z,2676.00
2023-02-21T00:43:25.603Z,2692.00
2023-02-21T00:44:25.593Z,2696.00
2023-02-21T00:45:25.564Z,2689.00
2023-02-21T00:46:25.554Z,2701.00
2023-02-21T00:47:25.532Z,2699.00
2023-02-21T00:48:25.527Z,2712.00
2023-02-21T00:49:25.530Z,2692.00
2023-02-21T00:50:25.500Z,2689.00
2023-02-21T00:51:25.503Z,2699.00
2023-02-21T00:52:25.466Z,2683.00
2023-02-21T00:53:25.474Z,2700.00
2023-02-21T00:54:25.470Z,2685.00
2023-02-21T00:55:25.446Z,2691.00
2023-02-21T00:56:25.422Z,2681.00
2023-02-21T00:57:25.416Z,2673.00
2023-02-21T00:58:25.420Z,2689.00
2023-02-21T00:59:25.390Z,2679.00
2023-02-21T01:00:25.360Z,2671.00
2023-02-21T01:01:25.395Z,2681.00
2023-02-21T01:02:25.335Z,2663.00
2023-02-21T01:03:25.317Z,2646.00
2023-02-21T01:04:25.330Z,2657.00
2023-02-21T01:05:25.273Z,2653.00
2023-02-21T01:06:25.263Z,2662.00
2023-02-21T01:07:25.252Z,2673.00
2023-02-21T01:08:25.233Z,2664.00
2023-02-21T01:09:25.244Z,2667.00
2023-02-21T01:10:25.198Z,2662.00
2023-02-21T01:11:25.206Z,2638.00
2023-02-21T01:12:25.197Z,2650.00
2023-02-21T01:13:25.177Z,2656.00
2023-02-21T01:14:26.827Z,2640.00
2023-02-21T01:15:25.151Z,2664.00
2023-02-21T01:16:25.118Z,2667.00
2023-02-21T01:17:25.108Z,2659.00
2023-02-21T01:18:25.106Z,2637.00
2023-02-21T01:19:25.114Z,2641.00
2023-02-21T01:20:25.117Z,2640.00
2023-02-21T01:21:25.051Z,2664.00
2023-02-21T01:22:25.049Z,2636.00
2023-02-21T01:23:25.036Z,2630.00
2023-02-21T01:24:25.039Z,2641.00
2023-02-21T01:25:25.038Z,2613.00
2023-02-21T01:26:24.994Z,2626.00
2023-02-21T01:27:24.976Z,2605.00
2023-02-21T01:28:24.959Z,2607.00
2023-02-21T01:29:24.960Z,2598.00
2023-02-21T01:30:25.024Z,2654.00
2023-02-21T01:31:24.968Z,2624.00
2023-02-21T01:32:24.950Z,2626.00
2023-02-21T01:33:24.896Z,2628.00
2023-02-21T01:34:24.854Z,2607.00
2023-02-21T01:35:24.862Z,2625.00
2023-02-21T01:36:24.857Z,2620.00
2023-02-21T01:37:24.840Z,2601.00
2023-02-21T01:38:24.819Z,2607.00
2023-02-21T01:39:24.812Z,2618.00
2023-02-21T01:40:24.824Z,2592.00
2023-02-21T01:41:24.799Z,2589.00
2023-02-21T01:42:24.795Z,2613.00
2023-02-21T01:43:24.748Z,2572.00
2023-02-21T01:44:24.746Z,2594.00
2023-02-21T01:45:24.755Z,2584.00
2023-02-21T01:46:24.751Z,2580.00
2023-02-21T01:47:24.694Z,2578.00
2023-02-21T01:48:24.690Z,2600.00
2023-02-21T01:49:24.659Z,2567.00
2023-02-21T01:50:24.646Z,2599.00
2023-02-21T01:51:24.615Z,2559.00
2023-02-21T01:52:24.592Z,2563.00
2023-02-21T01:53:24.580Z,2595.00
2023-02-21T01:54:24.553Z,2579.00
2023-02-21T01:55:24.549Z,2570.00
2023-02-21T01:56:24.515Z,2574.00
2023-02-21T01:57:24.513Z,2591.00
2023-02-21T01:58:24.485Z,2567.00
2023-02-21T01:59:24.458Z,2528.00
2023-02-21T02:00:24.445Z,2552.00
2023-02-21T02:01:24.413Z,2570.00
2023-02-21T02:02:24.413Z,2559.00
2023-02-21T02:03:24.372Z,2551.00
2023-02-21T02:04:24.388Z,2579.00
2023-02-21T02:05:24.347Z,2553.00
2023-02-21T02:06:24.357Z,2560.00
2023-02-21T02:07:24.307Z,2549.00
2023-02-21T02:08:24.282Z,2567.00
2023-02-21T02:09:24.279Z,2561.00
2023-02-21T02:10:24.292Z,2532.00
2023-02-21T02:11:24.229Z,2524.00
2023-02-21T02:12:24.214Z,2526.00
2023-02-21T02:13:24.225Z,2565.00
2023-02-21T02:14:24.178Z,2508.00
2023-02-21T02:15:24.189Z,2534.00
2023-02-21T02:16:24.142Z,2543.00
2023-02-21T02:17:24.127Z,2519.00
2023-02-21T02:18:24.119Z,2499.00
2023-02-21T02:19:24.151Z,2523.00
2023-02-21T02:20:24.080Z,2571.00
2023-02-21T02:21:24.059Z,2526.00
2023-02-21T02:22:24.048Z,2510.00
2023-02-21T02:23:24.008Z,2505.00
2023-02-21T02:24:23.986Z,2541.00
2023-02-21T02:25:24.001Z,2515.00
2023-02-21T02:26:23.950Z,2497.00
2023-02-21T02:27:23.954Z,2510.00
2023-02-21T02:28:23.910Z,2501.00
2023-02-21T02:29:23.888Z,2496.00
2023-02-21T02:30:23.905Z,2500.00
2023-02-21T02:31:23.936Z,2487.00
2023-02-21T02:32:23.846Z,2507.00
2023-02-21T02:33:23.819Z,2487.00
2023-02-21T02:34:23.783Z,2479.00
2023-02-21T02:35:23.792Z,2482.00
2023-02-21T02:36:23.778Z,2485.00
2023-02-21T02:37:23.767Z,2491.00
2023-02-21T02:38:23.712Z,2506.00
2023-02-21T02:39:23.678Z,2498.00
2023-02-21T02:40:23.673Z,2478.00
2023-02-21T02:41:23.650Z,2406.00
2023-02-21T02:42:23.636Z,2334.00
2023-02-21T02:43:23.604Z,2342.00
2023-02-21T02:44:23.610Z,2237.00
2023-02-21T02:45:23.579Z,2182.00
2023-02-21T02:46:23.631Z,2134.00
2023-02-21T02:47:23.579Z,2082.00
2023-02-21T02:48:23.541Z,2068.00
2023-02-21T02:49:23.550Z,2010.00
2023-02-21T02:50:23.508Z,2024.00
2023-02-21T02:51:23.514Z,1968.00
2023-02-21T02:52:23.480Z,1951.00
2023-02-21T02:53:23.492Z,1913.00
2023-02-21T02:54:23.469Z,1866.00
2023-02-21T02:55:23.458Z,1833.00
2023-02-21T02:56:23.476Z,1821.00
2023-02-21T02:57:23.470Z,1773.00
2023-02-21T02:58:23.431Z,1712.00
2023-02-21T02:59:23.438Z,1711.00
2023-02-21T03:00:23.413Z,1681.00
2023-02-21T03:01:23.463Z,1677.00
2023-02-21T03:02:23.409Z,1631.00
2023-02-21T03:03:23.499Z,1619.00
2023-02-21T03:04:23.380Z,1594.00
2023-02-21T03:05:23.565Z,1565.00
2023-02-21T03:06:23.387Z,1503.00
2023-02-21T03:07:23.360Z,1502.00
2023-02-21T03:08:23.328Z,1440.00
2023-02-21T03:09:23.335Z,1407.00
2023-02-21T03:10:23.315Z,1388.00
2023-02-21T03:11:23.319Z,1347.00
2023-02-21T03:12:23.290Z,1323.00
2023-02-21T03:13:23.261Z,1331.00
2023-02-21T03:14:23.249Z,1285.00
2023-02-21T03:15:23.231Z,1272.00
2023-02-21T03:16:23.309Z,1257.00
2023-02-21T03:17:23.206Z,1240.00
2023-02-21T03:18:23.174Z,1210.00
2023-02-21T03:19:23.170Z,1205.00
2023-02-21T03:20:23.166Z,1193.00
2023-02-21T03:21:23.142Z,1185.00
2023-02-21T03:22:23.146Z,1121.00
2023-02-21T03:23:23.105Z,1153.00
2023-02-21T03:24:23.095Z,1131.00
2023-02-21T03:25:23.087Z,1169.00
2023-02-21T03:26:23.090Z,1166.00
2023-02-21T03:27:23.092Z,1142.00
2023-02-21T03:28:23.060Z,1135.00
2023-02-21T03:29:23.069Z,1148.00
2023-02-21T03:30:23.106Z,1102.00
2023-02-21T03:31:23.047Z,1095.00
2023-02-21T03:32:23.089Z,1133.00
2023-02-21T03:33:22.999Z,1117.00
2023-02-21T03:34:22.982Z,1101.00
2023-02-21T03:35:22.985Z,1075.00
2023-02-21T03:36:22.977Z,1061.00
2023-02-21T03:37:22.962Z,1036.00
2023-02-21T03:38:22.940Z,1036.00
2023-02-21T03:39:22.912Z,1032.00
2023-02-21T03:40:22.897Z,1020.00
2023-02-21T03:41:22.901Z,1014.00
2023-02-21T03:42:22.894Z,988.00
2023-02-21T03:43:22.864Z,968.00
2023-02-21T03:44:22.868Z,964.00
2023-02-21T03:45:22.854Z,931.00
2023-02-21T03:46:22.870Z,919.00
2023-02-21T03:47:22.853Z,890.00
2023-02-21T03:48:31.311Z,865.00
2023-02-21T03:49:23.795Z,865.00
2023-02-21T03:50:22.807Z,860.00
2023-02-21T03:51:22.803Z,856.00
2023-02-21T03:52:22.792Z,850.00
2023-02-21T03:53:22.800Z,844.00
2023-02-21T03:54:22.783Z,850.00
2023-02-21T03:55:22.750Z,834.00
2023-02-21T03:56:26.122Z,836.00
2023-02-21T03:57:23.771Z,838.00
2023-02-21T03:58:22.741Z,847.00
2023-02-21T03:59:22.778Z,856.00
2023-02-21T04:00:22.728Z,895.00
2023-02-21T04:01:22.786Z,941.00
2023-02-21T04:02:22.769Z,925.00
2023-02-21T04:03:22.725Z,895.00
2023-02-21T04:04:22.708Z,879.00
2023-02-21T04:05:22.697Z,874.00
2023-02-21T04:06:22.703Z,895.00
2023-02-21T04:07:22.728Z,881.00
2023-02-21T04:08:22.679Z,887.00
2023-02-21T04:09:22.640Z,866.00
2023-02-21T04:10:22.644Z,862.00
2023-02-21T04:11:22.618Z,850.00
2023-02-21T04:12:22.626Z,881.00
2023-02-21T04:13:22.574Z,867.00
2023-02-21T04:14:22.587Z,876.00
2023-02-21T04:15:22.597Z,872.00
2023-02-21T04:16:22.572Z,880.00
2023-02-21T04:17:22.554Z,882.00
2023-02-21T04:18:22.558Z,885.00
2023-02-21T04:19:22.509Z,889.00
2023-02-21T04:20:22.539Z,892.00
2023-02-21T04:21:22.496Z,892.00
2023-02-21T04:22:22.527Z,888.00
2023-02-21T04:23:22.469Z,875.00
2023-02-21T04:24:22.453Z,853.00
2023-02-21T04:25:22.444Z,849.00
2023-02-21T04:26:22.450Z,838.00
2023-02-21T04:27:22.405Z,841.00
2023-02-21T04:28:22.416Z,831.00
2023-02-21T04:29:22.405Z,808.00
2023-02-21T04:30:22.372Z,797.00
2023-02-21T04:31:22.371Z,808.00
2023-02-21T04:32:22.579Z,802.00
2023-02-21T04:33:22.359Z,812.00
2023-02-21T04:34:22.331Z,818.00
2023-02-21T04:35:22.333Z,815.00
2023-02-21T04:36:22.303Z,814.00
2023-02-21T04:37:22.305Z,798.00
2023-02-21T04:38:22.301Z,779.00
2023-02-21T04:39:22.270Z,775.00
2023-02-21T04:40:22.239Z,786.00
2023-02-21T04:41:22.215Z,788.00
2023-02-21T04:42:22.227Z,798.00
2023-02-21T04:43:22.223Z,784.00
2023-02-21T04:44:22.221Z,796.00
2023-02-21T04:45:22.219Z,805.00
2023-02-21T04:46:22.207Z,791.00
2023-02-21T04:47:22.165Z,774.00
2023-02-21T05:32:46.493Z,1014.00
2023-02-21T05:37:21.911Z,1016.00
2023-02-21T05:38:21.912Z,1015.00
2023-02-21T05:39:21.927Z,989.00
2023-02-21T05:40:21.930Z,962.00
2023-02-21T05:41:21.897Z,950.00
2023-02-21T05:42:21.894Z,926.00
2023-02-21T05:43:21.888Z,909.00
2023-02-21T05:44:21.884Z,919.00
2023-02-21T05:45:21.878Z,933.00
2023-02-21T05:46:21.932Z,937.00
2023-02-21T05:47:21.866Z,961.00
2023-02-21T05:48:21.869Z,978.00
2023-02-21T05:49:21.887Z,993.00
2023-02-21T05:50:21.867Z,1008.00
2023-02-21T05:51:21.872Z,993.00
2023-02-21T05:52:21.842Z,998.00
2023-02-21T05:53:21.847Z,1030.00
2023-02-21T05:54:21.823Z,1033.00
2023-02-21T05:55:21.820Z,1041.00
2023-02-21T05:56:21.828Z,1031.00
2023-02-21T05:57:21.834Z,1046.00
2023-02-21T05:58:21.793Z,1046.00
2023-02-21T05:59:21.821Z,1049.00
2023-02-21T06:00:21.778Z,1054.00
2023-02-21T06:01:21.780Z,1064.00
2023-02-21T06:02:21.808Z,1054.00
2023-02-21T06:03:21.822Z,1049.00
2023-02-21T06:04:21.768Z,1039.00
2023-02-21T06:05:21.762Z,1033.00
2023-02-21T06:06:21.764Z,1033.00
2023-02-21T06:07:21.747Z,1061.00
2023-02-21T06:08:21.741Z,1069.00
2023-02-21T06:09:21.750Z,1083.00
2023-02-21T06:10:21.755Z,1083.00
2023-02-21T06:11:21.739Z,1105.00
2023-02-21T06:12:21.734Z,1097.00
2023-02-21T06:13:21.724Z,1128.00
2023-02-21T06:14:21.716Z,1146.00
2023-02-21T06:15:21.753Z,1152.00
2023-02-21T06:16:21.702Z,1182.00
2023-02-21T06:17:21.719Z,1187.00
2023-02-21T06:18:21.693Z,1208.00
2023-02-21T06:19:21.684Z,1202.00
2023-02-21T06:20:21.699Z,1177.00
2023-02-21T06:21:21.699Z,1152.00
2023-02-21T06:22:21.670Z,1127.00
2023-02-21T06:23:21.668Z,1102.00
2023-02-21T06:24:21.694Z,1068.00
2023-02-21T06:25:21.704Z,1062.00
2023-02-21T06:26:21.676Z,1063.00
2023-02-21T06:27:21.646Z,1073.00
2023-02-21T06:28:21.670Z,1075.00
2023-02-21T06:29:21.682Z,1083.00
2023-02-21T06:30:23.172Z,1109.00
2023-02-21T06:31:21.688Z,1142.00
2023-02-21T06:32:21.667Z,1181.00
2023-02-21T06:33:21.667Z,1202.00
2023-02-21T06:34:21.645Z,1200.00
2023-02-21T06:35:21.799Z,1201.00
2023-02-21T06:36:21.652Z,1208.00
2023-02-21T06:37:21.652Z,1219.00
2023-02-21T06:38:21.651Z,1245.00
2023-02-21T06:39:21.652Z,1253.00
2023-02-21T06:40:21.655Z,1209.00
2023-02-21T06:41:21.646Z,1182.00
2023-02-21T06:42:21.689Z,1190.00
2023-02-21T06:43:21.642Z,1185.00
2023-02-21T06:44:21.630Z,1267.00
2023-02-21T06:45:21.659Z,1353.00
2023-02-21T06:46:21.629Z,1404.00
2023-02-21T06:47:21.643Z,1451.00
2023-02-21T06:48:21.644Z,1454.00
2023-02-21T06:49:21.597Z,1463.00
2023-02-21T06:50:21.612Z,1487.00
2023-02-21T06:51:21.592Z,1498.00
2023-02-21T06:52:21.615Z,1527.00
2023-02-21T06:53:21.605Z,1564.00
2023-02-21T06:54:21.576Z,1594.00
2023-02-21T06:55:23.089Z,1611.00
2023-02-21T06:56:21.588Z,1613.00
2023-02-21T06:57:21.538Z,1620.00
2023-02-21T06:58:21.538Z,1642.00
2023-02-21T06:59:21.520Z,1695.00
2023-02-21T07:00:21.519Z,1786.00
2023-02-21T07:01:21.517Z,1807.00
2023-02-21T07:02:21.603Z,1824.00
2023-02-21T07:03:21.457Z,1856.00
2023-02-21T07:04:21.538Z,1869.00
2023-02-21T07:05:21.459Z,1902.00
2023-02-21T07:06:21.623Z,1931.00
2023-02-21T07:07:21.421Z,1936.00
2023-02-21T07:08:21.410Z,1946.00
2023-02-21T07:09:21.418Z,1996.00
2023-02-21T07:10:21.410Z,1996.00
2023-02-21T07:11:21.441Z,2026.00
2023-02-21T07:12:21.384Z,2037.00
2023-02-21T07:13:22.584Z,2050.00
2023-02-21T07:14:21.331Z,2047.00
2023-02-21T07:15:21.314Z,2065.00
2023-02-21T07:16:21.321Z,2099.00
2023-02-21T07:17:21.261Z,2080.00
2023-02-21T07:18:21.268Z,2117.00
2023-02-21T07:19:21.292Z,2147.00
2023-02-21T07:20:21.245Z,2179.00
2023-02-21T07:21:21.222Z,2191.00
2023-02-21T07:22:21.175Z,2200.00
2023-02-21T07:23:21.151Z,2229.00
2023-02-21T07:24:21.170Z,2262.00
2023-02-21T07:25:21.135Z,2274.00
2023-02-21T07:26:21.132Z,2290.00
2023-02-21T07:27:21.108Z,2279.00
2023-02-21T07:28:21.071Z,2315.00
2023-02-21T07:29:21.077Z,2314.00
2023-02-21T07:30:21.065Z,2319.00
2023-02-21T07:31:21.425Z,2351.00
2023-02-21T07:32:21.002Z,2372.00
2023-02-21T07:33:20.964Z,2377.00
2023-02-21T09:08:20.207Z,1895.00
2023-02-21T09:09:20.147Z,1929.00
2023-02-21T09:10:20.137Z,1956.00
2023-02-21T09:11:20.104Z,1951.00
2023-02-21T09:12:20.109Z,1995.00
2023-02-21T09:13:20.132Z,2032.00
2023-02-21T09:14:20.078Z,2058.00
2023-02-21T09:15:20.082Z,2080.00
2023-02-21T09:16:20.124Z,2021.00
2023-02-21T09:17:20.040Z,2053.00
2023-02-21T09:18:20.096Z,2109.00
2023-02-21T09:19:19.998Z,2140.00
2023-02-21T09:20:20.002Z,2167.00
2023-02-21T09:21:19.953Z,2134.00
2023-02-21T09:22:19.916Z,2172.00
2023-02-21T09:23:19.911Z,2206.00
2023-02-21T09:24:19.896Z,2169.00
2023-02-21T09:25:19.878Z,2179.00
2023-02-21T09:26:19.919Z,2181.00
2023-02-21T09:27:19.823Z,2181.00
2023-02-21T09:28:19.849Z,2189.00
2023-02-21T09:29:19.827Z,2211.00
2023-02-21T09:30:19.857Z,2251.00
2023-02-21T09:31:19.793Z,2252.00
2023-02-21T09:32:19.732Z,2215.00
2023-02-21T09:33:19.692Z,2244.00
2023-02-21T09:34:19.721Z,2261.00
2023-02-21T09:35:19.680Z,2069.00
2023-02-21T09:36:19.639Z,2047.00
2023-02-21T09:37:19.634Z,2067.00
2023-02-21T09:38:19.605Z,1953.00
2023-02-21T09:39:19.606Z,1990.00
2023-02-21T09:40:19.591Z,1911.00
2023-02-21T09:41:19.555Z,1829.00
2023-02-21T09:42:19.541Z,1845.00
2023-02-21T09:43:19.519Z,1699.00
2023-02-21T09:44:19.487Z,1683.00
2023-02-21T09:45:19.484Z,1646.00
2023-02-21T09:46:19.467Z,1569.00
2023-02-21T09:47:19.431Z,1511.00
2023-02-21T09:48:19.419Z,1494.00
2023-02-21T09:49:19.417Z,1422.00
2023-02-21T09:50:19.380Z,1257.00
2023-02-21T09:51:19.381Z,1156.00
2023-02-21T09:52:19.343Z,1086.00
2023-02-21T09:53:19.329Z,1144.00
2023-02-21T09:54:19.353Z,1117.00
2023-02-21T09:55:19.342Z,1140.00
2023-02-21T09:56:19.350Z,1030.00
2023-02-21T09:57:19.309Z,1133.00
2023-02-21T09:58:19.265Z,1069.00
2023-02-21T09:59:19.268Z,1064.00
2023-02-21T10:00:19.291Z,1153.00
2023-02-21T10:01:19.279Z,1226.00
2023-02-21T10:02:19.231Z,1228.00
2023-02-21T10:03:19.206Z,1244.00
2023-02-21T10:04:19.221Z,1307.00
2023-02-21T10:05:19.236Z,1412.00
2023-02-21T10:06:19.162Z,1237.00
2023-02-21T10:07:19.158Z,1284.00
2023-02-21T10:08:19.166Z,1375.00
2023-02-21T10:09:19.125Z,1534.00
2023-02-21T10:10:19.150Z,1736.00
2023-02-21T10:11:21.252Z,1725.00
2023-02-21T10:12:19.504Z,1839.00
2023-02-21T10:13:19.270Z,1843.00
2023-02-21T10:14:19.181Z,1868.00
2023-02-21T10:15:19.011Z,1814.00
2023-02-21T10:16:19.062Z,1938.00
2023-02-21T10:17:19.007Z,1935.00
2023-02-21T10:18:19.646Z,1968.00
2023-02-21T10:19:18.941Z,1963.00
2023-02-21T10:20:18.945Z,1939.00
2023-02-21T10:21:18.908Z,1663.00
2023-02-21T10:22:18.908Z,1564.00
2023-02-21T10:23:18.911Z,1473.00
2023-02-21T10:24:18.914Z,1479.00
2023-02-21T10:25:18.915Z,1484.00
2023-02-21T10:26:18.883Z,1511.00
2023-02-21T10:27:18.906Z,1537.00
2023-02-21T10:28:18.808Z,1483.00
2023-02-21T10:29:18.921Z,1481.00
2023-02-21T10:30:20.033Z,1504.00
2023-02-21T10:31:21.444Z,1394.00
2023-02-21T10:32:20.844Z,1395.00
2023-02-21T10:33:20.643Z,1386.00
2023-02-21T10:34:19.578Z,1352.00
2023-02-21T10:35:19.930Z,1317.00
2023-02-21T10:36:22.082Z,1379.00
2023-02-21T10:37:20.884Z,1394.00
2023-02-21T10:38:18.925Z,1394.00
2023-02-21T10:39:19.745Z,1402.00
2023-02-21T10:40:19.621Z,1315.00
2023-02-21T10:41:20.511Z,1400.00
2023-02-21T10:42:19.179Z,1397.00
2023-02-21T10:43:18.751Z,1329.00
2023-02-21T10:44:18.706Z,1438.00
2023-02-21T10:45:18.736Z,1303.00
2023-02-21T10:46:18.804Z,655.00
2023-02-21T10:47:18.617Z,568.00
2023-02-21T10:48:18.644Z,618.00
2023-02-21T10:49:18.661Z,584.00
2023-02-21T10:50:18.728Z,601.00
2023-02-21T10:51:19.388Z,584.00
2023-02-21T10:52:19.879Z,623.00
2023-02-21T10:53:19.608Z,624.00
2023-02-21T10:54:25.163Z,666.00
2023-02-21T10:55:32.184Z,669.00
2023-02-21T10:56:37.113Z,671.00
2023-02-21T10:57:24.746Z,671.00
2023-02-21T10:58:28.525Z,674.00
2023-02-21T10:59:26.985Z,667.00
2023-02-21T11:00:30.719Z,670.00
2023-02-21T11:01:21.178Z,673.00
2023-02-21T11:03:20.978Z,670.00
2023-02-21T11:04:22.247Z,669.00
2023-02-21T11:05:20.882Z,668.00
2023-02-21T11:06:19.687Z,669.00
2023-02-21T11:07:20.928Z,695.00
2023-02-21T11:08:21.231Z,676.00
2023-02-21T11:09:21.642Z,675.00
2023-02-21T11:10:22.696Z,677.00
2023-02-21T11:11:20.987Z,679.00
2023-02-21T11:12:23.635Z,678.00
2023-02-21T11:13:21.811Z,681.00
2023-02-21T11:14:24.307Z,678.00
2023-02-21T11:15:23.557Z,677.00
2023-02-21T11:16:19.363Z,680.00
2023-02-21T11:17:23.312Z,720.00
2023-02-21T11:18:20.597Z,678.00
2023-02-21T11:19:20.985Z,680.00
2023-02-21T11:20:20.089Z,681.00
2023-02-21T11:21:20.153Z,680.00
2023-02-21T11:22:21.646Z,683.00
2023-02-21T11:23:20.963Z,681.00
2023-02-21T11:24:21.873Z,683.00
2023-02-21T11:25:22.067Z,682.00
2023-02-21T11:26:24.989Z,683.00
2023-02-21T11:27:21.328Z,683.00
2023-02-21T11:28:22.352Z,687.00
2023-02-21T11:29:18.479Z,686.00
2023-02-21T11:30:20.062Z,761.00
2023-02-21T11:31:22.198Z,892.00
2023-02-21T11:32:22.755Z,687.00
2023-02-21T11:33:19.173Z,685.00
2023-02-21T11:34:18.794Z,762.00
2023-02-21T11:35:29.772Z,885.00
2023-02-21T11:36:20.746Z,682.00
2023-02-21T11:37:20.845Z,692.00
2023-02-21T11:38:21.450Z,686.00
2023-02-21T11:39:21.193Z,688.00
2023-02-21T11:40:19.179Z,690.00
2023-02-21T11:41:19.371Z,758.00
2023-02-21T11:42:18.311Z,903.00
2023-02-21T11:43:18.236Z,1138.00
2023-02-21T11:44:18.837Z,1351.00
2023-02-21T11:45:17.939Z,1297.00
2023-02-21T11:46:18.090Z,1221.00
2023-02-21T11:47:18.330Z,1310.00
2023-02-21T11:48:19.273Z,1173.00
2023-02-21T11:49:18.346Z,1216.00
2023-02-21T11:50:18.227Z,1236.00
2023-02-21T11:51:18.469Z,1199.00
2023-02-21T11:52:17.943Z,1212.00
2023-02-21T11:53:17.840Z,1218.00
2023-02-21T11:54:17.885Z,1243.00
2023-02-21T11:55:17.968Z,1184.00
2023-02-21T11:56:18.029Z,1141.00
2023-02-21T11:57:18.056Z,1170.00
2023-02-21T11:58:17.990Z,1245.00
2023-02-21T11:59:18.405Z,1248.00
2023-02-21T12:00:17.913Z,1195.00
2023-02-21T12:01:18.756Z,1159.00
2023-02-21T12:02:18.019Z,1178.00
2023-02-21T12:03:17.874Z,1197.00
2023-02-21T12:04:17.865Z,1209.00
2023-02-21T12:05:17.869Z,1209.00
2023-02-21T12:06:19.611Z,1116.00
2023-02-21T12:07:17.868Z,1088.00
2023-02-21T12:08:18.190Z,1111.00
2023-02-21T12:09:18.441Z,1039.00
2023-02-21T12:10:17.648Z,1091.00
2023-02-21T12:11:18.140Z,1077.00
2023-02-21T12:33:17.399Z,1140.00
2023-02-21T12:34:17.455Z,1159.00
2023-02-21T12:35:17.521Z,1164.00
2023-02-21T12:36:17.530Z,1229.00
2023-02-21T12:37:17.561Z,1225.00
2023-02-21T12:38:17.594Z,1151.00
2023-02-21T12:39:17.617Z,1170.00
2023-02-21T12:40:17.683Z,1111.00
2023-02-21T12:50:17.967Z,1103.00
2023-02-21T12:51:18.058Z,1111.00
2023-02-21T12:52:18.034Z,1100.00
2023-02-21T12:53:18.091Z,1113.00
2023-02-21T12:54:18.100Z,1098.00
2023-02-21T12:55:18.154Z,1113.00
2023-02-21T12:56:18.303Z,1080.00
2023-02-21T12:57:18.126Z,1081.00
2023-02-21T12:58:18.107Z,1082.00
2023-02-21T12:59:18.068Z,1064.00
2023-02-21T13:00:18.027Z,1112.00
2023-02-21T13:01:21.073Z,1141.00
2023-02-21T13:02:17.986Z,1083.00
2023-02-21T13:03:17.964Z,1102.00
2023-02-21T13:04:17.901Z,1151.00
2023-02-21T13:05:17.888Z,1215.00
2023-02-21T13:06:17.866Z,1388.00
2023-02-21T13:07:17.828Z,1396.00
2023-02-21T13:08:17.811Z,1399.00
2023-02-21T13:09:17.776Z,1446.00
2023-02-21T13:10:17.749Z,1497.00
2023-02-21T13:11:17.755Z,1489.00
2023-02-21T13:12:17.705Z,1518.00
2023-02-21T13:13:17.695Z,1539.00
2023-02-21T13:14:17.673Z,1594.00
2023-02-21T13:15:17.632Z,1590.00
2023-02-21T13:16:17.629Z,1618.00
2023-02-21T13:17:17.542Z,1638.00
2023-02-21T13:18:17.541Z,1639.00
2023-02-21T13:19:17.528Z,1648.00
2023-02-21T13:20:17.447Z,1680.00
2023-02-21T13:21:17.517Z,1707.00
2023-02-21T13:22:17.391Z,1696.00
2023-02-21T13:23:17.387Z,1720.00
2023-02-21T13:24:17.323Z,1747.00
2023-02-21T13:25:17.304Z,1765.00
2023-02-21T13:26:17.269Z,1752.00
2023-02-21T13:27:17.235Z,1750.00
2023-02-21T13:28:17.230Z,1751.00
2023-02-21T13:29:17.181Z,1754.00
2023-02-21T13:30:17.172Z,1768.00
2023-02-21T13:31:17.452Z,1786.00
2023-02-21T13:32:17.232Z,1790.00
2023-02-21T13:33:17.074Z,1776.00
2023-02-21T13:34:17.010Z,1698.00
2023-02-21T13:35:16.991Z,1654.00
2023-02-21T13:36:16.919Z,1624.00
2023-02-21T13:37:16.890Z,1569.00
2023-02-21T13:38:16.888Z,1504.00
2023-02-21T13:39:16.844Z,1527.00
2023-02-21T13:40:16.793Z,1484.00
2023-02-21T13:41:17.239Z,1484.00
2023-02-21T13:42:16.754Z,1472.00
2023-02-21T13:43:16.710Z,1470.00
2023-02-21T13:44:16.724Z,1425.00
2023-02-21T13:45:16.668Z,1462.00
2023-02-21T13:46:16.755Z,1484.00
2023-02-21T13:47:16.638Z,1446.00
2023-02-21T13:48:16.563Z,1488.00
2023-02-21T13:49:16.540Z,1492.00
2023-02-21T13:50:16.500Z,1516.00
2023-02-21T13:51:16.658Z,1438.00
2023-02-21T13:52:16.433Z,1386.00
2023-02-21T13:53:16.430Z,1393.00
2023-02-21T13:54:16.373Z,1315.00
2023-02-21T13:55:16.371Z,1337.00
2023-02-21T13:56:16.346Z,1332.00
2023-02-21T13:57:16.352Z,1354.00
2023-02-21T13:58:16.319Z,1412.00
2023-02-21T13:59:16.270Z,1425.00
2023-02-21T14:00:16.250Z,1432.00
2023-02-21T14:01:16.175Z,1444.00
2023-02-21T14:02:16.147Z,1487.00
2023-02-21T14:03:16.119Z,1494.00
2023-02-21T14:04:16.113Z,1504.00
2023-02-21T14:05:16.053Z,1522.00
2023-02-21T14:06:16.234Z,1516.00
2023-02-21T14:07:15.990Z,1522.00
2023-02-21T14:08:15.958Z,1538.00
2023-02-21T14:09:15.956Z,1547.00
2023-02-21T14:10:15.927Z,1558.00
2023-02-21T14:11:15.881Z,1583.00
2023-02-21T14:12:15.864Z,1581.00
2023-02-21T14:13:15.825Z,1611.00
2023-02-21T14:14:15.819Z,1628.00
2023-02-21T14:15:15.793Z,1644.00
2023-02-21T14:16:16.167Z,1652.00
2023-02-21T14:17:15.712Z,1650.00
2023-02-21T14:18:15.690Z,1637.00
2023-02-21T14:19:15.705Z,1654.00
2023-02-21T14:20:15.645Z,1658.00
2023-02-21T14:21:15.927Z,1671.00
2023-02-21T14:22:15.631Z,1693.00
2023-02-21T14:23:15.594Z,1708.00
2023-02-21T14:24:15.555Z,1724.00
2023-02-21T14:25:15.540Z,1733.00
2023-02-21T14:26:15.708Z,1713.00
2023-02-21T14:27:15.489Z,1712.00
2023-02-21T14:28:15.429Z,1727.00
2023-02-21T14:29:15.451Z,1737.00
2023-02-21T14:30:15.519Z,1768.00
2023-02-21T14:31:15.794Z,1795.00
2023-02-21T14:32:15.412Z,1816.00
2023-02-21T14:33:16.037Z,1846.00
2023-02-21T14:34:15.305Z,1853.00
2023-02-21T14:35:15.312Z,1866.00
2023-02-21T14:36:15.308Z,1878.00
2023-02-21T14:37:15.245Z,1885.00
2023-02-21T14:38:15.199Z,1914.00
2023-02-21T14:39:15.186Z,1915.00
2023-02-21T14:40:15.172Z,1915.00
2023-02-21T14:41:15.414Z,1935.00
2023-02-21T14:42:15.183Z,1941.00
2023-02-21T14:43:15.244Z,1949.00
2023-02-21T14:44:15.256Z,1950.00
2023-02-21T14:45:15.320Z,1952.00
2023-02-21T14:46:15.305Z,1963.00
2023-02-21T14:47:15.337Z,1968.00
2023-02-21T14:48:15.364Z,1972.00
2023-02-21T14:49:17.323Z,1984.00
2023-02-21T14:50:15.373Z,1979.00
2023-02-21T14:51:15.642Z,1979.00
2023-02-21T14:52:15.298Z,1981.00
2023-02-21T14:53:15.255Z,1987.00
2023-02-21T14:54:15.246Z,2004.00
2023-02-21T14:55:15.220Z,2012.00
2023-02-21T14:56:15.196Z,2018.00
2023-02-21T14:57:15.138Z,2032.00
2023-02-21T14:58:15.098Z,2052.00
2023-02-21T14:59:15.070Z,2042.00
2023-02-21T15:00:15.062Z,2045.00
2023-02-21T15:01:15.429Z,2047.00
2023-02-21T15:02:14.977Z,2061.00
2023-02-21T15:03:14.970Z,2045.00
2023-02-21T15:04:15.017Z,2053.00
2023-02-21T15:05:14.903Z,2057.00
2023-02-21T15:06:14.883Z,2064.00
2023-02-21T15:07:14.832Z,2062.00
2023-02-21T15:08:14.795Z,2065.00
2023-02-21T15:09:14.801Z,2069.00
2023-02-21T19:02:09.402Z,1764.00
2023-02-21T19:03:09.385Z,1765.00
2023-02-21T19:04:09.383Z,1742.00
2023-02-21T19:05:09.347Z,1750.00
2023-02-21T19:06:09.354Z,1763.00
2023-02-21T19:07:09.308Z,1764.00
2023-02-21T19:08:09.288Z,1765.00
2023-02-21T19:09:09.263Z,1755.00
2023-02-21T19:10:09.304Z,1750.00
2023-02-21T19:11:09.278Z,1752.00
2023-02-21T19:12:09.241Z,1735.00
2023-02-21T19:13:09.245Z,1729.00
2023-02-21T19:14:09.221Z,1741.00
2023-02-21T19:15:09.169Z,1739.00
2023-02-21T19:16:09.209Z,1728.00
2023-02-21T19:17:09.122Z,1747.00
2023-02-21T19:18:09.127Z,1723.00
2023-02-21T19:19:09.094Z,1718.00
2023-02-21T19:20:09.087Z,1724.00
2023-02-21T19:21:09.096Z,1727.00
2023-02-21T19:22:09.054Z,1732.00
2023-02-21T19:23:09.023Z,1719.00
2023-02-21T19:24:09.024Z,1719.00
2023-02-21T19:25:08.989Z,1713.00
2023-02-21T19:26:09.001Z,1712.00